Sei sulla pagina 1di 4

MONTE BALDO BIKE

AVIO 03/07/2022
CLASSIC (37 KM)

Pos Nr. Nominativo Atleta G Anno Cat Pos Nome Squadra Tempo Gap Km/h
1 6 RISATTI Nicola M 1985 OPEN 1 ASD CHERO GROUP TEAM SFRENATI 01:45:32.53 - 26,719
2 95 DEPAUL Gabriele M 1988 M1 1 TEAM TODESCO 01:46:44.53 +1:11 26,419
3 12 FANTINATO Kevin M 1999 OPEN 2 HUBBERS _ POLIMEDICAL 01:47:52.26 +2:19 26,142
4 113 ZAMBONI Andrea M 1982 M3 1 UNTER - BRAO CAFFE' 01:48:18.32 +2:45 26,037
5 27 DALVAI Armin M 1989 OPEN 3 RH RACING KRONPLATZKING 01:48:49.25 +3:16 25,914
6 5 RIGHETTINI Andrea M 1992 OPEN 4 OLYMPIA FACTORY TEAM 01:49:47.25 +4:14 25,686
7 161 PANIZ Luca M 1975 M4 1 TEAM SPACE BIKE 01:51:38.78 +6:06 25,258
8 9 CANAL Adolfo M 1999 OPEN 5 TEAM TODESCO 01:51:46.51 +6:13 25,229
9 96 ZAMPEDRI Luca M 1976 M4 2 TEAM TODESCO 01:52:24.62 +6:52 25,087
10 104 VIOLI Davide M 1992 M1 2 ASD BIKE AND FUN TEAM 01:52:43.75 +7:11 25,016
11 126 RIGHETTI Michele M 1984 M2 1 RF TEAM 01:53:33.26 +8:00 24,834
12 86 PEDROTTI Thomas M 1990 M1 3 ASD CHERO GROUP TEAM SFRENATI 01:54:24.48 +8:51 24,649
13 83 CLAUSER Andrea M 1985 M2 2 ASD CHERO GROUP TEAM SFRENATI 01:55:10.31 +9:37 24,485
14 125 BERTASI Michael M 1991 M1 4 RF TEAM 01:55:46.41 +10:13 24,358
15 106 DE BERNARDIN Giulio M 1998 ELMT 1 ASD SWATT CLUB 01:56:01.50 +10:28 24,305
16 122 VESENTINI Andrea M 1999 ELMT 2 VELO CLUB GARDA 01:56:09.50 +10:36 24,277
17 105 PINTARELLI Simone M 1985 M2 3 POLISPORTIVA BERSNTOL A.DILETTANTI 01:56:24.48 +10:51 24,225
18 139 DELLA DORA Gabriele M 1984 M2 4 TEAM TODESCO 01:56:42.38 +11:09 24,163
19 108 BALLARDINI Emiliano M 1971 M5 1 TEAM LAPIERRE - TRENTINO - ALE' 01:56:46.99 +11:14 24,147
20 121 LUDWIG Stefan M 1971 M5 2 TEAM BSR 01:56:57.72 +11:25 24,110
21 115 MINIERI Diego M 1974 M4 3 SPEZZOTTO BIKE TEAM 01:57:29.48 +11:56 24,002
22 26 TOMASELLO Riccardo M 2003 OPEN 6 WILIER 7C FORCE 01:57:35.99 +12:03 23,980
23 112 MAZZARINI Emiliano M 1976 M4 4 ASD CHERO GROUP TEAM SFRENATI 01:57:53.36 +12:20 23,921
24 118 PERSICH Dario M 1979 M3 2 VEE TIRE CO TEAM RACE 01:58:37.57 +13:05 23,772
25 99 BERTOLDI Marco M 1983 M2 5 ISOLPI RACING TEAM 01:59:00.48 +13:27 23,696
26 164 GIOVANETTI Mauro M 1974 M4 5 ACD BIK BIKE 01:59:12.46 +13:39 23,656
27 102 PIZZOLATO Christian M 1999 ELMT 3 PAVANELLO RACING TEAM 01:59:31.93 +13:59 23,592
28 10 MANTOVANI Sebastiano M 1999 OPEN 7 OMAP CICLI ANDREIS 01:59:36.18 +14:03 23,578
29 94 DOLIANA Luca M 2001 ELMT 4 US LITEGOSA 01:59:37.40 +14:04 23,574
30 84 FORNI Alessandro M 1980 M3 3 ASD CHERO GROUP TEAM SFRENATI 01:59:46.93 +14:14 23,543
31 116 ZANNI Ivan M 1968 M5 3 TEAM SILDOM GARDA 01:59:53.70 +14:21 23,521
32 159 BOLDRINI Michael M 1988 M1 5 SC BARBIERI 02:00:22.19 +14:49 23,428
33 25 FIORIO Nicolas M 2002 OPEN 8 TEAM VERONA MTB 02:00:47.43 +15:14 23,346
34 131 BUSI Marco M 1988 M1 6 ASD BIKE AND FUN TEAM 02:01:11.45 +15:38 23,269
35 165 CONTI Cristian M 1980 M3 4 S.C.BARBIERI 02:01:16.18 +15:43 23,254
36 29 OLIVA Vittorio M 1991 OPEN 9 CARBONHUBO CMQ 02:01:30.45 +15:57 23,208
37 156 FERRARI Andrea M 1975 M4 6 ASD CHERO GROUP TEAM SFRENATI 02:01:41.33 +16:08 23,174
38 110 CALDONAZZI Tommaso M 1990 M1 7 NEW TEAM ASD 02:02:34.94 +17:02 23,005
39 15 BIANCHI Stefano M 2004 JU 1 TEAM MANUEL BIKE FRM 02:02:47.64 +17:15 22,965
40 114 CASNA Loris M 1985 M2 6 UNTER - BRAO CAFFE' 02:02:56.44 +17:23 22,938
41 338 CHIP NON ASSOCIATO 70001200 M 1999 ELMT 5 *** 02:02:59.41 +17:26 22,929
42 17 DELLA MEA Assi M 2004 JU 2 ASD JAM'S BIKE TEAM BUJA 02:03:08.75 +17:36 22,900
43 157 CENNAMO Pierluigi M 1981 M3 5 ISOLPI RACING TEAM 02:03:29.83 +17:57 22,835
44 88 MAGAGNOTTI Daniele M 1966 M6 1 ASD AVESANI 02:03:41.39 +18:08 22,799
45 23 VIRGILI Giacomo M 2000 OPEN 10 ASD CHERO GROUP TEAM SFRENATI 02:03:51.93 +18:19 22,767
46 8 MAZZUREGA Elia M 1995 OPEN 11 TEAM TODESCO 02:04:07.95 +18:35 22,718
47 129 VASSANELLI Davide M 1990 M1 8 ASD VENTI-VENTI BIKE TEAM 02:04:18.29 +18:45 22,686
48 22 PIANTONI Andrea M 2003 OPEN 12 BOTTECCHIA FACTORY TEAM 02:04:39.39 +19:06 22,622
49 103 TAVERNA Elia M 1985 M2 7 ASD BIKE AND FUN TEAM 02:04:48.17 +19:15 22,596
50 98 FLARER Tobias M 1977 M4 7 SC MERAN ZORZI KÄLTETECHNIK 02:05:02.41 +19:29 22,553
51 21 TOCCOLI Zaccaria M 2000 OPEN 13 TEAM TODESCO 02:05:21.77 +19:49 22,495
52 13 ALFERII Elia M 2004 JU 3 ASD GIOMAS 02:05:37.17 +20:04 22,449
53 87 DI GERONIMO Michele M 1966 M6 2 UNTER - BRAO CAFFE' 02:06:35.79 +21:03 22,275
54 224 MEZZADRA Giorgio M 1983 M2 8 GRUPPO NULLI - GUBER BANCA 02:06:37.62 +21:05 22,270
55 117 CAMAGGI Fabrizio M 1966 M6 3 VEE TIRE CO TEAM RACE 02:07:03.16 +21:30 22,196
56 91 MORA Carlo M 1969 M5 4 ACD BIK BIKE 02:07:06.90 +21:34 22,185
57 123 TURATI Davide M 1987 M2 9 TEAM BENETTI 02:07:19.60 +21:47 22,148
58 242 CUSINATO Giovanni M 1976 M4 8 TREVIMAC BIKE TEAM ASD 02:07:25.40 +21:52 22,131
59 315 FIORIO Alessandro M 1978 M3 6 RF TEAM 02:07:29.33 +21:56 22,120
60 344 DONINI Alessio M 1984 M2 10 VERTICAL SPORT KTM TEAM 02:07:35.82 +22:03 22,101

Classifiche Elaborate da SMS Sport


Pag. 1/4
MONTE BALDO BIKE
AVIO 03/07/2022
CLASSIC (37 KM)

Pos Nr. Nominativo Atleta G Anno Cat Pos Nome Squadra Tempo Gap Km/h
61 81 ZADRA Mattia M 1990 M1 9 TEAM BSR 02:07:40.28 +22:07 22,088
62 228 TOFFALORI Daniele M 1993 ELMT 6 TEAM TODESCO 02:07:42.11 +22:09 22,083
63 7 GUFLER Roman M 1996 OPEN 14 RH RACING KRONPLATZKING 02:07:48.40 +22:15 22,065
64 16 MARKART David M 2004 JU 4 ASC KARDAUN-CARDANO 02:07:55.40 +22:22 22,044
65 153 CIECH Manuel M 1983 M2 11 VITMINABIKECLUB 02:08:03.65 +22:31 22,021
66 236 SINA Vilson M 1995 ELMT 7 VERTICAL SPORT KTM TEAM 02:08:45.15 +23:12 21,902
67 230 DEGASPERI Nicola M 1998 ELMT 8 NEW TEAM ASD 02:09:18.24 +23:45 21,809
68 373 CALLEGARI Eros M 1989 M1 10 TEAM BSR 02:09:43.38 +24:10 21,739
69 51 PIETROVITO Vittoria F 2003 DJ 1 OMAP CICLI ANDREIS 02:09:49.47 +24:16 21,722
70 20 CENTURIONI Alberto M 2002 OPEN 15 ASD GIOMAS 02:10:08.87 +24:36 21,668
71 90 DEFLORIAN Willi M 1967 M6 4 ASD PELLEGRIN CYCLING TEAM 02:10:46.25 +25:13 21,564
72 101 MIORI Michele M 1970 M5 5 TRENTINO BIKE TEAM 02:11:03.38 +25:30 21,517
73 119 MUNARO Alessandro M 1963 M6 5 OMAP CICLI ANDREIS 02:11:25.19 +25:52 21,458
74 356 NEGRINI Andrea M 1976 M4 9 TEAM 9 UNIONE INT. CICLISTICA AREA NORD 02:11:28.11 +25:55 21,450
75 327 RABUAZZO Anastasio M 1981 M3 7 ASD BIKE AND FUN TEAM 02:11:38.36 +26:05 21,422
76 146 RIZZI Nicola M 1980 M3 8 SC AVIO 02:11:51.96 +26:19 21,385
77 130 GANDINI Alex M 1997 ELMT 9 ASD AVESANI 02:11:53.08 +26:20 21,382
78 111 BOLOGNANI Roberto M 1982 M3 9 ISOLPI RACING TEAM 02:12:09.81 +26:37 21,337
79 317 GRANDI Andrea M 1988 M1 11 OMAP CICLI ANDREIS 02:12:43.10 +27:10 21,248
80 24 BONDAVALLI Samuele M 2003 OPEN 16 ASD CHERO GROUP TEAM SFRENATI 02:13:12.27 +27:39 21,170
81 89 DE LUCA Luigi M 1984 M2 12 GSA PENNE SPRINT 02:13:15.72 +27:43 21,161
82 319 SEMPREBONI Luca M 1983 M2 13 ASD VENTI-VENTI BIKE TEAM 02:13:16.32 +27:43 21,160
83 312 MADDINELLI Michelangelo M 1997 ELMT 10 RF TEAM 02:13:35.09 +28:02 21,110
84 208 NADALINI Mirco M 1974 M4 10 ASD CHERO GROUP TEAM SFRENATI 02:14:14.53 +28:41 21,007
85 215 LEONARDI Stefano M 1998 ELMT 11 TEAM EXECUTIVE 02:14:36.02 +29:03 20,951
86 205 CALDERARA Nicola M 1991 M1 12 TORRE BIKE 02:15:24.34 +29:51 20,826
87 68 ZOCCA Lorena F 1977 FU 1 SC BARBIERI 02:15:46.19 +30:13 20,770
88 214 LEONI Claudio M 1982 M3 10 TORRE BIKE 02:16:16.82 +30:44 20,693
89 303 MILANI Silvio M 1974 M4 11 ASD AVESANI 02:16:20.47 +30:47 20,683
90 360 ZADRA Cristian M 1993 ELMT 12 TEAM BSR 02:16:29.19 +30:56 20,661
91 350 LONARDI Zeno M 1996 ELMT 13 TEAM BENETTI 02:16:49.83 +31:17 20,609
92 331 COMINI Christian M 1971 M5 6 ASD CICLOAMATORI CALCINATO 02:17:00.29 +31:27 20,583
93 152 NAVE Valentino M 1969 M5 7 VERTICAL SPORT KTM TEAM 02:17:13.19 +31:40 20,551
94 206 LOLLATO Sergio antonio M 1966 M6 6 ASD MB TEAM MACRO 02:17:17.45 +31:44 20,540
95 372 BESCHI Alberto M 1974 M4 12 S.C.BARBIERI 02:17:24.07 +31:51 20,524
96 147 ROBOL Mauro M 1974 M4 13 SC AVIO 02:18:41.01 +33:08 20,334
97 213 LEONARDI Andrea M 1997 ELMT 14 TORRE BIKE 02:19:17.11 +33:44 20,246
98 227 TONIATO Luca M 1987 M2 14 UNOTEAM CITTADELLA 02:19:36.04 +34:03 20,200
99 64 CAMEDDA Olga F 1997 FU 2 TEAM TODESCO 02:19:49.79 +34:17 20,167
100 357 MIERKE Matias M 1996 ELMT 15 INDIVIDUALE 02:20:36.76 +35:04 20,055
101 155 ECCHELI Thomas M 1984 M2 15 RDR ITALIA LEYNICESE RACING TEAM 02:20:45.53 +35:12 20,034
102 141 RAVAGNI Maurizio M 1972 M5 8 GSA ZEROWIND 02:20:51.21 +35:18 20,021
103 307 ZANTEDESCHI Martino M 1991 M1 13 TEAM BENETTI 02:21:06.82 +35:34 19,984
104 318 RIGHETTI Alessandro M 1983 M2 16 ASD VENTI-VENTI BIKE TEAM 02:21:10.03 +35:37 19,976
105 302 ALDRIGHETTI Gabriele M 1979 M3 11 ASD TEAM CORSETTI CICLI 02:21:31.28 +35:58 19,926
106 140 ANDREOLLI Paolo M 1975 M4 14 GSA ZEROWIND 02:21:49.00 +36:16 19,885
107 366 SEVERI Andrea M 1986 M2 17 MDS PANARIAGROUP 02:22:35.24 +37:02 19,777
108 134 TRUZZI Matteo M 2004 JU 5 ASD VIADANA BIKE 02:23:09.52 +37:36 19,698
109 314 MALFER Mauro M 1978 M3 12 RF TEAM 02:23:23.71 +37:51 19,666
110 363 STOPPELE Paolo M 1981 M3 13 KM SPORT 02:23:52.26 +38:19 19,601
111 207 CECCHIN Giorgio M 1988 M1 14 ASD MB TEAM MACRO 02:24:03.87 +38:31 19,575
112 218 BACCHIOCCHI Valerio M 1984 M2 18 FASSA BIKE 02:24:30.76 +38:58 19,514
113 97 FRANCHINI Gianpietro M 1961 M6 7 MTB ITALIA 02:24:41.38 +39:08 19,490
114 361 FESTI Paolo M 1976 M4 15 TEAM EXECUTIVE 02:24:51.12 +39:18 19,468
115 143 PEDERZOLLI Roberto M 1980 M3 14 PEDERZOLLI ELITE SPORT 02:25:04.91 +39:32 19,437
116 304 SEMBENINI Manuel M 1984 M2 19 TEAM BENETTI 02:25:46.48 +40:13 19,345
117 222 ZAMBOTTI Alex M 1988 M1 15 VIGILI DEL FUOCO DEL TRENTINO 02:26:09.40 +40:36 19,294
118 316 BRESSANIN Mauro M 1963 M6 8 ASD RF TEAM 02:27:04.97 +41:32 19,173
119 310 FRANCESCONI Matteo M 1986 M2 20 TEAM LAPIERRE - TRENTINO - ALE' 02:27:33.48 +42:00 19,111
120 313 CHIGNOLA Emanuele M 1983 M2 21 RF TEAM 02:28:10.22 +42:37 19,032

Classifiche Elaborate da SMS Sport


Pag. 2/4
MONTE BALDO BIKE
AVIO 03/07/2022
CLASSIC (37 KM)

Pos Nr. Nominativo Atleta G Anno Cat Pos Nome Squadra Tempo Gap Km/h
121 220 ZAFFIGNANI Massimo M 1968 M5 9 ASD BIKE AND FUN TEAM 02:28:16.23 +42:43 19,019
122 132 DALLA PAOLA Mario M 1956 M6 9 TEAM ZANOLINI BIKE 02:28:24.45 +42:51 19,002
123 221 CARBOGNANI Arnaldo M 1976 M4 16 ASD BIKE AND FUN TEAM 02:28:41.09 +43:08 18,966
124 14 VECELLIO REANE Davide M 2005 JU 6 ASD BETTINI BIKE TEAM 02:28:41.47 +43:08 18,965
125 340 BIANCHINI Marcello M 1978 M3 15 ASD CHERO GROUP TEAM SFRENATI 02:28:57.21 +43:24 18,932
126 107 SESTER Luca M 1966 M6 10 TEAM TODESCO 02:29:21.47 +43:48 18,881
127 163 PIERANGELI Paolo M 1968 M5 10 TEAM CARPENTARI 02:29:25.91 +43:53 18,871
128 145 PILATI Andrea M 1979 M3 16 SC AVIO 02:29:51.47 +44:18 18,818
129 237 CHEMOTTI Marco M 1970 M5 11 VERTICAL SPORT KTM TEAM 02:31:01.63 +45:29 18,672
130 128 PESCETTA Alessandro M 1957 M6 11 ASD VENTI-VENTI BIKE TEAM 02:31:42.44 +46:09 18,588
131 63 BERTOSSI Camilla F 1965 FU 3 TEAM TODESCO 02:32:03.08 +46:30 18,546
132 329 MODENA Gabriele M 1965 M6 12 ACD BIK BIKE 02:33:00.88 +47:28 18,430
133 240 ZANI John patrick M 1991 M1 16 TEAM EXECUTIVE 02:33:17.32 +47:44 18,397
134 144 CRISTOFORETTI Marco M 1985 M2 22 SC AVIO 02:33:18.52 +47:45 18,394
135 162 PANZETTA Stefano M 1973 M4 17 ASD-GS CICLOMAT.CASTELMASSA 02:34:10.43 +48:37 18,291
136 211 PUIATTI Fiorenzo M 1966 M6 13 ACIDO LATTICO TEAM 02:35:06.62 +49:34 18,181
137 149 CHIP NON ASSOCIATO 70000173 M 1968 M5 12 *** 02:37:14.15 +51:41 17,935
138 325 GALTER Cristian M 1992 M1 17 UNTER - BRAO CAFFE' 02:38:39.35 +53:06 17,774
139 142 GAZZINI Stefano M 1970 M5 13 GSA ZEROWIND 02:39:08.14 +53:35 17,721
140 337 GATTI Francesco M 1982 M3 17 ASD TEAM BIANCHI ZANZARIERE 02:39:12.89 +53:40 17,712
141 233 CHISTE' Stefano M 1984 M2 23 VERTICAL SPORT KTM TEAM 02:39:52.57 +54:20 17,639
142 306 TOLLINI Fabio M 1989 M1 18 TEAM BENETTI 02:39:55.12 +54:22 17,634
143 138 LAZZAROTTI Gianluca M 1967 M6 14 ASD RODMAN AZIMUT SQUADRA CORSE 02:40:44.62 +55:12 17,543
144 353 BERTOLDI Manuel M 1985 M2 24 TEAM BSR 02:40:53.11 +55:20 17,528
145 326 TRENTINI Andrea M 1990 M1 19 ASD MTB FRANCIACORTA CAPRIOLO 02:41:09.36 +55:36 17,499
146 52 MARINELLI Camilla F 1999 DE 1 ASD BIKE AND FUN TEAM 02:41:19.77 +55:47 17,480
147 209 BERTAMINI Fabrizio M 1963 M6 15 CICLISTICA DRO 02:41:55.84 +56:23 17,415
148 369 BASSOLI Manuel M 1972 M5 14 TEAM TODESCO 02:42:09.60 +56:37 17,390
149 305 SALVAGNO Mattia M 1989 M1 20 UC PALAZZOLO 02:42:33.11 +57:00 17,348
150 370 PETRI Roberto M 1966 M6 16 AICS COMITATO PROVINCIALE BRESCIA APS 02:43:54.09 +58:21 17,205
151 330 SIMONIELLO Michele M 1987 M2 25 TEAM CIUKE' ASD 02:44:28.78 +58:56 17,145
152 339 MAZZAFERRO Gianluca M 1978 M3 18 POLISPORTIVA BERSNTOL A.DILETTANTI 02:44:55.96 +59:23 17,098
153 202 VEGGETTI Alberto M 1972 M5 15 BOMBARDIER SQUADRA CORSE ASD 02:45:25.33 +59:52 17,047
154 341 ANTOLINI Valentino M 1968 M5 16 MB TEAM GARDA ASD 02:45:50.31 +01:00:17 17,004
155 336 TRUZZI Andrea M 1977 M4 18 ASD VIADANA BIKE 02:46:58.24 +01:01:25 16,889
156 334 SALVONI Francesco M 1974 M4 19 ASD RAMPI TEAM 96 02:47:20.82 +01:01:48 16,851
157 365 GARAU Yuri M 1974 M4 20 TRENTINO BIKE TEAM 02:47:53.00 +01:02:20 16,797
158 204 PAONE Andreas M 1982 M3 19 SC ALTAIR ASD 02:47:56.65 +01:02:24 16,791
159 368 BONATO Gianluca M 1966 M6 17 TEAM TODESCO 02:49:10.55 +01:03:38 16,669
160 324 BONAPACE Mirko M 1973 M4 21 VALRENDENABIKE - CARISOLO 02:50:22.78 +01:04:50 16,551
161 158 CAMPOSTRINI Valerio M 1969 M5 17 SC AVIO 02:50:24.04 +01:04:51 16,549
162 148 TADDEI Antonio M 1976 M4 22 SC AVIO 02:50:26.29 +01:04:53 16,546
163 320 PIASENTE Enrico M 1983 M2 26 ASD VENTI-VENTI BIKE TEAM 02:56:22.22 +01:10:49 15,989
164 62 LONARDELLI Francesca F 1965 FU 4 ASD VENTI-VENTI BIKE TEAM 02:56:22.64 +01:10:50 15,988
165 232 MIORELLI Stefano M 1961 M6 18 VERTICAL SPORT KTM TEAM 02:56:58.97 +01:11:26 15,934
166 359 SANTORUM Enzo M 1955 M6 19 PEDERZOLLI ELITE SPORT 02:57:01.20 +01:11:28 15,930
167 223 RIGHI Christian M 1971 M5 18 UC SOZZIGALLI 02:57:19.64 +01:11:47 15,903
168 354 FREDDI Mattia M 1966 M6 20 TEAM SCULAZZO ITALIA 02:59:13.82 +01:13:41 15,734
169 332 BAIGUINI Michele M 1970 M5 19 ASD CICLOAMATORI CALCINATO 03:00:08.57 +01:14:36 15,654
170 239 AVIGNI Andrea M 1974 M4 23 GS ROSA 03:02:28.10 +01:16:55 15,455
171 234 MOLINARI Stefano M 1965 M6 21 VERTICAL SPORT KTM TEAM 03:03:07.68 +01:17:35 15,399
172 66 SALVI Claudia F 1972 FU 5 ASD RODMAN AZIMUT SQUADRA CORSE 03:03:12.92 +01:17:40 15,392
173 241 COCCONI Mirco M 1984 M2 27 NEW BIKE 03:05:25.14 +01:19:52 15,209
174 347 FERRIAN Fabrizio M 1966 M6 22 SOUTH BERICA BIKE TEAM 03:05:52.90 +01:20:20 15,171
175 203 OREGIO CATELAN Alex M 1980 M3 20 GS FREETIME 03:06:54.38 +01:21:21 15,088
176 335 LIGABUE Matteo M 1977 M4 24 GS ROSA 03:07:20.13 +01:21:47 15,053
177 358 LEPORATI Federico M 1970 M5 20 COLLI CYCLING TEAM ASD 03:08:20.57 +01:22:48 14,973
178 301 CARRARO Antonio M 1972 M5 21 ASD CICLI MORBIATO 03:08:38.60 +01:23:06 14,949
179 351 D'ONOFRIO Alessandro M 1987 M2 28 ASD CICLITORINO 03:12:55.81 +01:27:23 14,617
180 355 BARALDI Andrea M 1968 M5 22 TEAM CIUKE' ASD 03:23:39.74 +01:38:07 13,846

Classifiche Elaborate da SMS Sport


Pag. 3/4
MONTE BALDO BIKE
AVIO 03/07/2022
CLASSIC (37 KM)

Pos Nr. Nominativo Atleta G Anno Cat Pos Nome Squadra Tempo Gap Km/h
181 160 PEDROTTI Elio M 1958 M6 23 BREN TEAM TRENTO 03:48:22.19 +02:02:49 12,348
99997 18 FINOTTI Marco M 2005 JU 99997 ASD CHERO GROUP TEAM SFRENATI 00:00:00.00+0-1:0-45:0-32 ?
99997 349 PELLANDA Sunil M 1987 M2 99997 ASD TEAM PISSEI 00:00:00.00+0-1:0-45:0-32 ?
99998 371 DE CANDIA Mauro M 1957 M6 99998 TRAGUARDO VOLANTE RACING 00:00:00.00+0-1:0-45:0-32 ?
99998 367 GIACOPUZZI Giorgio M 1964 M6 99998 TESTE DI MARMO 00:00:00.00+0-1:0-45:0-32 ?
99998 30 DEBERTOLIS Nicola carlo M 2003 OPEN 99998 WILIER 7C FORCE 00:00:00.00+0-1:0-45:0-32 ?
99998 362 M'SADEK Youness M 1994 ELMT 99998 VOLTA BIKE TEAM ASD 00:00:00.00+0-1:0-45:0-32 ?
99998 85 VICENZI Daniel M 1994 ELMT 99998 ASD CHERO GROUP TEAM SFRENATI 00:00:00.00+0-1:0-45:0-32 ?

Potrebbero piacerti anche